Time;durP1;ratioP1;P1;durP2;ratioP2;P2;SDS_P1;SDS_P2;PMS_P1;PMS_P2;Temp;Humidity;BMP_temperature;BMP_pressure;BME280_temperature;BME280_humidity;BME280_pressure;Samples;Min_cycle;Max_cycle;Signal;HPM_P1;HPM_P2
2024/01/13 00:01:41;;;;;;;;;;;;;;;-5.57;76.85;95647.91;5115507;28;1468;-57
2024/01/13 00:04:14;;;;;;;;;;;;;;;-5.52;76.61;95651.19;5115085;28;1917;-58
2024/01/13 00:06:48;;;;;;;;;;;;;;;-5.61;76.90;95652.34;5115224;28;988;-58
2024/01/13 00:09:23;;;;;;;;;;;;;;;-5.75;76.38;95652.84;5115150;28;936;-57
2024/01/13 00:11:57;;;;;;;;;;;;;;;-6.13;77.23;95657.56;5115365;28;998;-57
2024/01/13 00:14:31;;;;;;;;;;;;;;;-6.28;77.63;95656.28;5114954;28;928;-57
2024/01/13 00:17:06;;;;;;;;;;;;;;;-6.08;77.34;95654.78;5115363;28;952;-58
2024/01/13 00:19:40;;;;;;;;;;;;;;;-6.00;77.25;95657.16;5115006;28;936;-57
2024/01/13 00:22:14;;;;;;;;;;;;;;;-6.00;76.89;95658.00;5115063;28;931;-57
2024/01/13 00:24:49;;;;;;;;;;;;;;;-6.41;76.50;95656.69;5114810;28;1910;-57
2024/01/13 00:27:23;;;;;;;;;;;;;;;-6.59;78.21;95661.53;5113949;28;910;-57
2024/01/13 00:29:56;;;;;;;;;;;;;;;-6.25;78.44;95654.47;5115019;28;1019;-58
2024/01/13 00:32:31;;;;;;;;;;;;;;;-5.94;77.56;95657.78;5114893;28;927;-57
2024/01/13 00:35:05;;;;;;;;;;;;;;;-6.34;76.79;95666.84;5114898;28;1023;-57
2024/01/13 00:37:40;;;;;;;;;;;;;;;-6.50;77.42;95663.03;5114618;28;989;-57
2024/01/13 00:40:15;;;;;;;;;;;;;;;-6.41;78.08;95661.88;5114560;28;1474;-57
2024/01/13 00:42:49;;;;;;;;;;;;;;;-6.23;77.22;95658.72;5114501;28;1910;-58
2024/01/13 00:45:23;;;;;;;;;;;;;;;-6.35;77.29;95651.31;5114345;28;1132;-57
2024/01/13 00:47:58;;;;;;;;;;;;;;;-6.51;77.41;95650.91;5112741;28;928;-57
2024/01/13 00:50:33;;;;;;;;;;;;;;;-6.17;77.80;95652.47;5114795;28;952;-57
2024/01/13 00:53:07;;;;;;;;;;;;;;;-6.02;77.64;95651.13;5114585;28;1293;-57
2024/01/13 00:55:41;;;;;;;;;;;;;;;-5.89;76.88;95645.44;5114580;28;937;-57
2024/01/13 00:58:16;;;;;;;;;;;;;;;-6.35;76.16;95640.91;5114197;28;991;-57
2024/01/13 01:00:50;;;;;;;;;;;;;;;-6.71;76.54;95649.75;5114498;28;932;-58
2024/01/13 01:03:24;;;;;;;;;;;;;;;-7.03;78.50;95642.03;5113853;28;1905;-58
2024/01/13 01:05:59;;;;;;;;;;;;;;;-6.72;79.17;95650.63;5114409;28;948;-57
2024/01/13 01:08:33;;;;;;;;;;;;;;;-6.72;78.30;95644.59;5114112;28;999;-58
2024/01/13 01:11:08;;;;;;;;;;;;;;;-6.88;77.55;95647.66;5114125;28;1003;-57
2024/01/13 01:13:43;;;;;;;;;;;;;;;-7.08;77.81;95650.78;5113989;28;998;-57
2024/01/13 01:16:15;;;;;;;;;;;;;;;-7.11;78.46;95644.84;5114034;28;2235;-57
2024/01/13 01:18:49;;;;;;;;;;;;;;;-7.18;79.06;95653.72;5114311;28;991;-57
2024/01/13 01:21:22;;;;;;;;;;;;;;;-7.03;79.46;95653.28;5113878;28;1640;-57
2024/01/13 01:23:56;;;;;;;;;;;;;;;-7.05;78.14;95655.06;5113879;28;1978;-57
2024/01/13 01:26:30;;;;;;;;;;;;;;;-7.05;78.47;95644.69;5113750;28;925;-57
2024/01/13 01:29:05;;;;;;;;;;;;;;;-6.80;78.43;95642.22;5113934;28;980;-57
2024/01/13 01:31:39;;;;;;;;;;;;;;;-6.82;77.48;95648.38;5113776;27;999;-57
2024/01/13 01:34:13;;;;;;;;;;;;;;;-7.12;77.95;95641.38;5113644;28;936;-57
2024/01/13 01:36:48;;;;;;;;;;;;;;;-7.16;77.95;95637.16;5113669;28;954;-57
2024/01/13 01:39:22;;;;;;;;;;;;;;;-6.97;78.25;95642.69;5113855;28;958;-57
2024/01/13 01:41:56;;;;;;;;;;;;;;;-6.97;77.97;95641.88;5113536;28;1238;-59
2024/01/13 01:44:31;;;;;;;;;;;;;;;-7.12;77.50;95648.34;5112326;28;1909;-57
2024/01/13 01:47:06;;;;;;;;;;;;;;;-7.29;77.93;95644.44;5113666;28;1439;-57
2024/01/13 01:49:40;;;;;;;;;;;;;;;-7.18;79.32;95633.75;5113846;28;1035;-57
2024/01/13 01:52:14;;;;;;;;;;;;;;;-7.01;78.18;95638.50;5113346;28;1508;-57
2024/01/13 01:54:46;;;;;;;;;;;;;;;-7.13;78.54;95637.09;5113941;28;1496;-57
2024/01/13 01:57:18;;;;;;;;;;;;;;;-6.90;78.12;95641.63;5113544;28;1498;-57
2024/01/13 01:59:53;;;;;;;;;;;;;;;-6.89;76.78;95640.72;5115372;28;976;-57
2024/01/13 02:02:26;;;;;;;;;;;;;;;-7.12;77.24;95643.13;5117764;28;959;-57
2024/01/13 02:05:02;;;;;;;;;;;;;;;-7.42;77.38;95630.09;5117661;28;1975;-58
2024/01/13 02:07:35;;;;;;;;;;;;;;;-7.52;78.55;95629.47;5117593;28;1390;-57
2024/01/13 02:10:09;;;;;;;;;;;;;;;-7.18;78.15;95623.38;5117531;28;932;-58
2024/01/13 02:12:43;;;;;;;;;;;;;;;-7.27;77.78;95629.66;5117569;28;1713;-57
2024/01/13 02:15:17;;;;;;;;;;;;;;;-7.26;77.99;95633.97;5117383;28;1741;-57
2024/01/13 02:17:52;;;;;;;;;;;;;;;-7.37;77.68;95619.59;5117420;28;1018;-57
2024/01/13 02:20:26;;;;;;;;;;;;;;;-7.64;78.56;95614.25;5117215;28;1109;-57
2024/01/13 02:23:00;;;;;;;;;;;;;;;-7.69;79.07;95613.50;5117439;28;1991;-57
2024/01/13 02:25:35;;;;;;;;;;;;;;;-7.79;78.49;95610.28;5117355;28;987;-57
2024/01/13 02:28:09;;;;;;;;;;;;;;;-7.84;79.24;95612.16;5117036;28;1522;-57
2024/01/13 02:30:43;;;;;;;;;;;;;;;-7.65;79.92;95617.72;5117229;28;936;-57
2024/01/13 02:33:16;;;;;;;;;;;;;;;-7.91;79.09;95571.66;5116862;28;1630;-57
2024/01/13 02:35:51;;;;;;;;;;;;;;;-7.64;79.08;95614.25;5117356;28;1001;-57
2024/01/13 02:38:25;;;;;;;;;;;;;;;-7.71;79.30;95608.34;5117070;28;931;-57
2024/01/13 02:40:58;;;;;;;;;;;;;;;-7.67;79.21;95601.31;5116993;28;991;-57
2024/01/13 02:43:33;;;;;;;;;;;;;;;-7.41;79.34;95594.59;5116591;28;1914;-57
2024/01/13 02:46:07;;;;;;;;;;;;;;;-7.21;78.64;95604.41;5117122;28;1038;-57
2024/01/13 02:48:46;;;;;;;;;;;;;;;-7.36;77.03;95598.78;5116961;28;935;-57
2024/01/13 02:51:20;;;;;;;;;;;;;;;-7.53;76.67;95608.75;5116993;28;944;-57
2024/01/13 02:53:55;;;;;;;;;;;;;;;-7.85;77.49;95606.13;5116907;28;1185;-57
2024/01/13 02:56:29;;;;;;;;;;;;;;;-8.08;78.20;95613.63;5116802;28;1009;-57
2024/01/13 02:59:03;;;;;;;;;;;;;;;-8.10;78.34;95616.28;5116811;28;1101;-57
2024/01/13 03:01:38;;;;;;;;;;;;;;;-8.18;79.36;95610.41;5116526;28;1782;-57
2024/01/13 03:04:12;;;;;;;;;;;;;;;-8.11;79.76;95617.16;5116456;28;1910;-57
2024/01/13 03:06:44;;;;;;;;;;;;;;;-8.05;79.29;95606.59;5116399;28;964;-57
2024/01/13 03:09:18;;;;;;;;;;;;;;;-7.58;80.00;95608.03;5116630;28;924;-57
2024/01/13 03:11:53;;;;;;;;;;;;;;;-7.61;78.11;95595.97;5115875;28;932;-57
2024/01/13 03:14:27;;;;;;;;;;;;;;;-7.69;77.67;95596.16;5116239;28;988;-57
2024/01/13 03:17:01;;;;;;;;;;;;;;;-7.96;77.92;95605.53;5116194;28;999;-57
2024/01/13 03:19:34;;;;;;;;;;;;;;;-8.18;78.67;95599.19;5116361;28;1615;-57
2024/01/13 03:22:08;;;;;;;;;;;;;;;-8.35;78.92;95599.59;5116170;28;1127;-57
2024/01/13 03:24:42;;;;;;;;;;;;;;;-8.11;79.05;95600.72;5115913;28;1933;-57
2024/01/13 03:27:16;;;;;;;;;;;;;;;-8.04;79.15;95597.09;5116122;28;973;-57
2024/01/13 03:29:51;;;;;;;;;;;;;;;-7.91;78.81;95603.69;5116196;28;991;-57
2024/01/13 03:32:25;;;;;;;;;;;;;;;-7.99;79.27;95608.19;5116049;28;1267;-57
2024/01/13 03:34:59;;;;;;;;;;;;;;;-7.68;78.51;95603.09;5116217;28;936;-57
2024/01/13 03:37:33;;;;;;;;;;;;;;;-7.50;78.18;95598.28;5116106;28;936;-57
2024/01/13 03:40:08;;;;;;;;;;;;;;;-7.37;78.28;95602.25;5115771;28;1015;-57
2024/01/13 03:42:45;;;;;;;;;;;;;;;-7.27;78.54;95605.44;5115747;28;1917;-57
2024/01/13 03:45:19;;;;;;;;;;;;;;;-7.53;77.19;95611.34;5115602;28;996;-57
2024/01/13 03:47:52;;;;;;;;;;;;;;;-7.68;77.72;95613.47;5115787;28;1686;-57
2024/01/13 03:50:27;;;;;;;;;;;;;;;-7.70;76.22;95604.00;5115751;28;1023;-57
2024/01/13 03:53:01;;;;;;;;;;;;;;;-7.97;76.96;95615.94;5115741;28;1251;-57
2024/01/13 03:55:35;;;;;;;;;;;;;;;-8.26;77.38;95620.13;5115588;28;2212;-57
2024/01/13 03:58:09;;;;;;;;;;;;;;;-8.40;78.07;95622.16;5115469;28;937;-57
2024/01/13 04:00:44;;;;;;;;;;;;;;;-8.49;78.99;95628.47;5115731;28;924;-57
2024/01/13 04:03:18;;;;;;;;;;;;;;;-8.45;79.69;95641.31;5115153;28;1913;-57
2024/01/13 04:05:53;;;;;;;;;;;;;;;-8.28;80.07;95648.69;5115860;28;935;-59
2024/01/13 04:08:27;;;;;;;;;;;;;;;-8.11;79.79;95665.59;5115326;28;1007;-59
2024/01/13 04:11:08;;;;;;;;;;;;;;;-8.00;78.55;95670.56;5114129;28;900;-58
2024/01/13 04:13:42;;;;;;;;;;;;;;;-7.76;78.18;95663.88;5115090;28;1028;-57
2024/01/13 04:16:17;;;;;;;;;;;;;;;-7.63;77.91;95665.28;5114995;28;1015;-56
2024/01/13 04:18:50;;;;;;;;;;;;;;;-7.56;77.87;95660.78;5115298;28;1478;-57
2024/01/13 04:21:24;;;;;;;;;;;;;;;-7.58;77.16;95652.19;5114953;28;1003;-57
2024/01/13 04:23:57;;;;;;;;;;;;;;;-7.91;76.32;95657.31;5113710;28;1914;-57
2024/01/13 04:26:31;;;;;;;;;;;;;;;-8.02;78.02;95644.63;5115053;28;927;-59
2024/01/13 04:29:05;;;;;;;;;;;;;;;-7.66;78.14;95645.44;5114919;28;947;-56
2024/01/13 04:31:38;;;;;;;;;;;;;;;-7.46;76.81;95638.84;5114994;28;1328;-58
2024/01/13 04:34:12;;;;;;;;;;;;;;;-7.62;76.04;95635.81;5114812;28;1306;-59
2024/01/13 04:36:42;;;;;;;;;;;;;;;-7.90;77.42;95633.09;5114609;28;1360;-59
2024/01/13 04:39:17;;;;;;;;;;;;;;;-7.68;77.54;95623.00;5114517;28;1176;-59
2024/01/13 04:41:50;;;;;;;;;;;;;;;-7.38;78.61;95623.06;5114502;28;1051;-59
2024/01/13 04:44:25;;;;;;;;;;;;;;;-7.19;78.76;95613.00;5114488;28;1976;-59
2024/01/13 04:46:58;;;;;;;;;;;;;;;-7.59;75.16;95612.34;5114792;28;948;-59
2024/01/13 04:49:31;;;;;;;;;;;;;;;-7.93;75.70;95618.44;5114635;28;956;-59
2024/01/13 04:52:05;;;;;;;;;;;;;;;-7.94;76.66;95623.66;5217122;22;3491;-59
2024/01/13 04:54:36;;;;;;;;;;;;;;;-7.85;77.98;95611.31;5094065;28;1637;-60
2024/01/13 04:57:08;;;;;;;;;;;;;;;-7.57;79.01;95614.91;5094225;28;916;-60
2024/01/13 04:59:40;;;;;;;;;;;;;;;-7.52;78.12;95613.06;5093830;28;1472;-59
2024/01/13 05:02:12;;;;;;;;;;;;;;;-7.82;78.15;95622.50;5092968;28;1493;-60
2024/01/13 05:04:41;;;;;;;;;;;;;;;-7.90;78.16;95633.09;5093760;28;1976;-60
2024/01/13 05:07:13;;;;;;;;;;;;;;;-7.92;78.91;95635.72;5093711;28;1636;-60
2024/01/13 05:09:50;;;;;;;;;;;;;;;-7.73;78.95;95635.25;5094090;28;932;-59
2024/01/13 05:12:24;;;;;;;;;;;;;;;-7.63;79.31;95644.50;5093640;28;1661;-59
2024/01/13 05:14:56;;;;;;;;;;;;;;;-7.83;74.97;95650.22;5094086;28;1518;-60
2024/01/13 05:17:30;;;;;;;;;;;;;;;-7.51;78.03;95651.09;5093977;28;1602;-63
2024/01/13 05:20:02;;;;;;;;;;;;;;;-7.33;77.93;95644.59;5094197;28;1506;-61
2024/01/13 05:22:37;;;;;;;;;;;;;;;-7.61;75.70;95653.09;5093783;28;1007;-60
2024/01/13 05:25:07;;;;;;;;;;;;;;;-7.94;76.42;95658.25;5093481;28;1917;-60
2024/01/13 05:27:39;;;;;;;;;;;;;;;-8.28;77.67;95668.59;5094039;28;1523;-59
2024/01/13 05:30:11;;;;;;;;;;;;;;;-8.03;77.29;95673.22;5093701;28;1733;-60
2024/01/13 05:32:42;;;;;;;;;;;;;;;-7.86;77.79;95669.28;5093695;28;1557;-60
2024/01/13 05:35:14;;;;;;;;;;;;;;;-7.70;77.23;95659.41;5093363;28;1545;-60
2024/01/13 05:37:46;;;;;;;;;;;;;;;-7.50;77.09;95661.47;5093635;28;1584;-60
2024/01/13 05:40:20;;;;;;;;;;;;;;;-7.88;75.26;95662.44;5093491;28;1585;-60
2024/01/13 05:46:14;;;;;;;;;;;;;;;-8.16;76.32;95654.47;5093487;28;1117;-60
2024/01/13 05:48:46;;;;;;;;;;;;;;;-7.97;76.47;95653.13;5093411;28;1626;-59
2024/01/13 05:51:20;;;;;;;;;;;;;;;-8.06;75.09;95643.84;5093088;28;1506;-60
2024/01/13 05:53:52;;;;;;;;;;;;;;;-8.13;74.90;95644.03;5074305;28;2584;-60
2024/01/13 05:56:26;;;;;;;;;;;;;;;-8.31;74.32;95642.72;5073051;28;1553;-59
2024/01/13 05:58:59;;;;;;;;;;;;;;;-8.67;75.94;95637.50;5073132;28;1428;-60
2024/01/13 06:01:31;;;;;;;;;;;;;;;-8.82;77.04;95637.84;5073019;28;1062;-59
2024/01/13 06:04:03;;;;;;;;;;;;;;;-8.62;77.20;95638.25;5072935;28;2007;-60
2024/01/13 06:06:35;;;;;;;;;;;;;;;-8.52;77.55;95633.72;5072882;28;1441;-58
2024/01/13 06:09:08;;;;;;;;;;;;;;;-8.62;77.50;95632.22;5073088;28;1668;-58
2024/01/13 06:11:42;;;;;;;;;;;;;;;-8.37;77.88;95633.34;5072872;28;1776;-60
2024/01/13 06:14:14;;;;;;;;;;;;;;;-8.17;76.84;95645.84;5071580;28;1594;-60
2024/01/13 06:16:47;;;;;;;;;;;;;;;-8.04;76.18;95651.59;5072724;28;1489;-60
2024/01/13 06:19:19;;;;;;;;;;;;;;;-7.68;76.55;95648.97;5072512;28;1667;-60
2024/01/13 06:21:50;;;;;;;;;;;;;;;-7.63;73.96;95657.47;5072814;28;1648;-60
2024/01/13 06:24:23;;;;;;;;;;;;;;;-7.92;73.86;95663.41;5072360;28;1997;-60
2024/01/13 06:26:55;;;;;;;;;;;;;;;-7.75;75.02;95648.28;5071762;28;1645;-59
2024/01/13 06:29:27;;;;;;;;;;;;;;;-7.59;75.15;95656.50;5071150;28;1684;-60
2024/01/13 06:31:59;;;;;;;;;;;;;;;-8.04;73.57;95656.78;5072817;28;1599;-60
2024/01/13 06:34:31;;;;;;;;;;;;;;;-8.22;75.12;95658.06;5071468;28;1617;-60
2024/01/13 06:37:03;;;;;;;;;;;;;;;-7.80;75.36;95665.69;5072760;28;1566;-60
2024/01/13 06:39:35;;;;;;;;;;;;;;;-6.13;69.95;95662.75;5072531;28;1534;-60
2024/01/13 06:42:08;;;;;;;;;;;;;;;-4.95;64.72;95673.53;5071526;28;1520;-60
2024/01/13 06:44:39;;;;;;;;;;;;;;;-3.74;61.33;95683.75;5072386;28;2004;-60
2024/01/13 06:47:11;;;;;;;;;;;;;;;-2.30;56.06;95702.03;5074757;28;1524;-60
2024/01/13 06:49:42;;;;;;;;;;;;;;;-1.79;54.67;95703.16;5076221;28;1566;-60
2024/01/13 06:52:15;;;;;;;;;;;;;;;-1.62;53.07;95712.00;5080085;28;1617;-60
2024/01/13 06:54:46;;;;;;;;;;;;;;;-0.79;51.11;95721.03;5096366;28;1456;-60
2024/01/13 06:57:20;;;;;;;;;;;;;;;-0.04;49.48;95710.97;5096419;28;1294;-60
2024/01/13 06:59:52;;;;;;;;;;;;;;;1.06;47.93;95718.88;5096412;28;1620;-60
2024/01/13 07:02:24;;;;;;;;;;;;;;;2.44;44.98;95720.16;5096194;28;1494;-60
2024/01/13 07:04:58;;;;;;;;;;;;;;;2.29;43.18;95727.25;5095856;28;1913;-61
2024/01/13 07:07:31;;;;;;;;;;;;;;;3.01;42.74;95727.91;5096176;28;1452;-60
2024/01/13 07:10:04;;;;;;;;;;;;;;;3.56;41.21;95728.66;5096246;28;1503;-57
2024/01/13 07:12:37;;;;;;;;;;;;;;;3.93;40.80;95723.50;5096272;28;1499;-56
2024/01/13 07:15:08;;;;;;;;;;;;;;;4.15;41.35;95730.75;5096146;28;1463;-57
2024/01/13 07:17:39;;;;;;;;;;;;;;;5.08;39.19;95733.81;5096227;28;1519;-57
2024/01/13 07:20:15;;;;;;;;;;;;;;;5.36;38.80;95744.16;5095944;28;1503;-57
2024/01/13 07:22:46;;;;;;;;;;;;;;;5.83;38.05;95731.75;5095930;28;1476;-57
2024/01/13 07:25:20;;;;;;;;;;;;;;;6.55;36.95;95733.28;5095994;28;869;-58
2024/01/13 07:27:52;;;;;;;;;;;;;;;6.42;36.79;95736.03;5092971;28;1454;-57
2024/01/13 07:30:23;;;;;;;;;;;;;;;6.12;37.29;95741.94;5075511;28;1477;-57
2024/01/13 07:32:55;;;;;;;;;;;;;;;6.88;36.16;95750.13;5075621;28;1600;-57
2024/01/13 07:35:27;;;;;;;;;;;;;;;6.82;36.16;95752.31;5075373;28;1517;-57
2024/01/13 07:38:00;;;;;;;;;;;;;;;6.54;37.01;95758.13;5075593;28;1596;-58
2024/01/13 07:40:32;;;;;;;;;;;;;;;6.78;36.70;95761.50;5075260;28;2160;-57
2024/01/13 07:43:04;;;;;;;;;;;;;;;6.74;36.46;95761.88;5075263;28;1910;-58
2024/01/13 07:45:39;;;;;;;;;;;;;;;7.44;35.65;95768.59;5075333;28;922;-57
2024/01/13 07:48:11;;;;;;;;;;;;;;;7.54;35.07;95782.81;5075253;28;2210;-57
2024/01/13 07:50:41;;;;;;;;;;;;;;;6.93;35.55;95785.16;5075240;28;1436;-57
2024/01/13 07:53:14;;;;;;;;;;;;;;;7.65;35.04;95784.59;5087881;28;1483;-57
2024/01/13 07:55:47;;;;;;;;;;;;;;;8.21;33.69;95786.09;5095337;28;1613;-58
2024/01/13 07:58:19;;;;;;;;;;;;;;;8.71;33.64;95786.25;5094905;28;1632;-57
2024/01/13 08:00:51;;;;;;;;;;;;;;;8.89;32.80;95796.28;5094934;28;1257;-58
2024/01/13 08:03:25;;;;;;;;;;;;;;;8.01;33.46;95793.97;5094829;28;1983;-57
2024/01/13 08:06:00;;;;;;;;;;;;;;;6.89;35.42;95791.72;5094164;28;937;-58
2024/01/13 08:08:34;;;;;;;;;;;;;;;5.75;37.23;95782.75;5094719;28;946;-58
2024/01/13 08:11:00;;;;;;;;;;;;;;;5.60;37.89;95776.78;5095022;28;1067;-58
2024/01/13 08:13:26;;;;;;;;;;;;;;;5.30;38.36;95773.78;5094811;28;1036;-58
2024/01/13 08:15:52;;;;;;;;;;;;;;;5.35;38.87;95776.91;5094460;28;977;-59
2024/01/13 08:18:18;;;;;;;;;;;;;;;4.46;40.54;95774.47;5094400;28;936;-58
2024/01/13 08:20:44;;;;;;;;;;;;;;;3.73;42.05;95772.47;5094752;28;977;-58
2024/01/13 08:23:10;;;;;;;;;;;;;;;2.57;45.01;95757.19;5094422;28;1906;-60
2024/01/13 08:25:36;;;;;;;;;;;;;;;0.97;47.69;95742.16;5094400;28;1099;-61
2024/01/13 08:28:02;;;;;;;;;;;;;;;-0.01;51.36;95724.78;5094486;28;1023;-61
2024/01/13 08:30:28;;;;;;;;;;;;;;;-0.96;54.94;95713.16;5094562;28;980;-61
2024/01/13 08:32:54;;;;;;;;;;;;;;;-1.15;57.93;95708.00;5094244;28;970;-61
2024/01/13 08:35:20;;;;;;;;;;;;;;;-1.57;60.31;95699.53;5094181;28;1104;-61
2024/01/13 08:37:50;;;;;;;;;;;;;;;-1.66;61.24;95697.34;5094425;28;1052;-61
2024/01/13 08:40:17;;;;;;;;;;;;;;;-1.82;62.44;95684.09;5094234;28;1103;-61
2024/01/13 08:42:43;;;;;;;;;;;;;;;-1.80;62.39;95674.41;5094090;28;1100;-61
2024/01/13 08:45:09;;;;;;;;;;;;;;;-1.73;61.49;95669.72;5094259;28;1994;-61
2024/01/13 08:47:35;;;;;;;;;;;;;;;-1.54;62.09;95661.78;5093824;28;1057;-61
2024/01/13 08:50:02;;;;;;;;;;;;;;;-1.30;61.53;95657.13;5093952;28;914;-61
2024/01/13 08:52:28;;;;;;;;;;;;;;;-1.20;63.00;95653.94;5087560;28;1122;-61
2024/01/13 08:54:54;;;;;;;;;;;;;;;-0.89;62.33;95648.91;5073716;28;1044;-62
2024/01/13 08:57:20;;;;;;;;;;;;;;;-0.98;61.89;95648.44;5073662;28;1058;-62
2024/01/13 08:59:46;;;;;;;;;;;;;;;-0.75;61.06;95646.41;5073568;28;1053;-62
2024/01/13 09:02:12;;;;;;;;;;;;;;;-0.64;60.86;95648.47;5073353;28;1052;-62
2024/01/13 09:04:38;;;;;;;;;;;;;;;-0.27;60.73;95647.34;5073380;28;2002;-62
2024/01/13 09:07:04;;;;;;;;;;;;;;;-0.02;59.65;95649.50;5073735;28;1052;-62
2024/01/13 09:09:30;;;;;;;;;;;;;;;0.16;59.66;95652.88;5072881;28;990;-61
2024/01/13 09:11:57;;;;;;;;;;;;;;;0.18;58.97;95651.00;5073392;28;1083;-61
2024/01/13 09:14:23;;;;;;;;;;;;;;;0.20;59.09;95643.03;5073598;28;1044;-62
2024/01/13 09:16:48;;;;;;;;;;;;;;;0.41;59.68;95635.72;5073561;28;1072;-62
2024/01/13 09:19:14;;;;;;;;;;;;;;;0.59;59.16;95631.19;5072316;28;1019;-62
2024/01/13 09:21:40;;;;;;;;;;;;;;;0.90;57.91;95640.75;5073485;28;969;-61
2024/01/13 09:24:06;;;;;;;;;;;;;;;1.30;57.54;95630.47;5073258;28;1910;-61
2024/01/13 09:26:32;;;;;;;;;;;;;;;1.49;57.33;95626.72;5073389;28;1057;-61
2024/01/13 09:28:58;;;;;;;;;;;;;;;1.46;55.41;95626.91;5073408;28;1068;-61
2024/01/13 09:31:24;;;;;;;;;;;;;;;1.58;56.32;95618.25;5073007;28;1019;-61
2024/01/13 09:33:50;;;;;;;;;;;;;;;1.60;55.83;95612.91;5073423;28;984;-60
2024/01/13 09:36:16;;;;;;;;;;;;;;;2.06;54.51;95613.47;5073052;28;1083;-61
2024/01/13 09:38:42;;;;;;;;;;;;;;;1.91;54.92;95598.63;5073042;28;1091;-61
2024/01/13 09:41:08;;;;;;;;;;;;;;;2.29;53.84;95605.88;5073273;28;970;-61
2024/01/13 09:43:34;;;;;;;;;;;;;;;2.61;53.11;95592.38;5073160;28;1914;-61
2024/01/13 09:46:00;;;;;;;;;;;;;;;2.96;52.26;95581.22;5072943;28;1049;-61
2024/01/13 09:48:28;;;;;;;;;;;;;;;3.01;52.06;95589.69;5073015;28;1008;-59
2024/01/13 09:50:54;;;;;;;;;;;;;;;2.72;51.53;95589.84;5072746;28;1212;-61
2024/01/13 09:53:30;;;;;;;;;;;;;;;2.84;50.73;95593.47;5086351;28;1217;-60
2024/01/13 09:56:10;;;;;;;;;;;;;;;2.59;49.88;95589.81;5093078;28;1056;-61
2024/01/13 09:58:38;;;;;;;;;;;;;;;2.86;50.44;95581.00;5093582;28;1275;-60
2024/01/13 10:01:06;;;;;;;;;;;;;;;3.19;48.55;95582.28;5093365;28;977;-60
2024/01/13 10:03:32;;;;;;;;;;;;;;;2.98;48.38;95579.31;5093105;28;1997;-60
2024/01/13 10:05:59;;;;;;;;;;;;;;;2.96;47.15;95583.84;5093077;28;969;-61
2024/01/13 10:08:31;;;;;;;;;;;;;;;3.20;46.20;95583.97;5093188;28;999;-61
2024/01/13 10:11:01;;;;;;;;;;;;;;;2.92;46.61;95580.56;5093198;28;992;-60
2024/01/13 10:13:27;;;;;;;;;;;;;;;2.97;46.08;95582.91;5092924;28;1106;-60
2024/01/13 10:15:54;;;;;;;;;;;;;;;2.66;44.56;95577.06;5092982;28;1076;-60
2024/01/13 10:18:22;;;;;;;;;;;;;;;2.98;45.87;95566.97;5092975;28;996;-60
2024/01/13 10:20:48;;;;;;;;;;;;;;;3.67;44.93;95569.25;5094749;28;1048;-60
2024/01/13 10:23:14;;;;;;;;;;;;;;;4.24;43.03;95571.28;5096758;28;1985;-60
2024/01/13 10:25:40;;;;;;;;;;;;;;;4.19;44.04;95569.94;5096818;28;988;-60
2024/01/13 10:28:06;;;;;;;;;;;;;;;3.97;43.27;95579.44;5095558;28;1021;-60
2024/01/13 10:30:33;;;;;;;;;;;;;;;3.92;44.44;95569.16;5096615;28;948;-60
2024/01/13 10:32:59;;;;;;;;;;;;;;;3.75;41.54;95568.69;5096841;28;983;-60
2024/01/13 10:35:28;;;;;;;;;;;;;;;3.98;42.99;95581.13;5096644;28;1079;-60
2024/01/13 10:37:57;;;;;;;;;;;;;;;4.11;43.13;95584.56;5096742;28;1218;-60
2024/01/13 10:40:24;;;;;;;;;;;;;;;4.05;42.45;95587.66;5096789;28;1115;-60
2024/01/13 10:42:53;;;;;;;;;;;;;;;4.05;42.65;95582.38;5096869;28;977;-60
2024/01/13 10:45:22;;;;;;;;;;;;;;;4.18;41.55;95586.78;5096497;28;1971;-60
2024/01/13 10:47:54;;;;;;;;;;;;;;;3.64;41.53;95572.97;5096560;28;1027;-60
2024/01/13 10:50:20;;;;;;;;;;;;;;;3.70;42.34;95561.13;5095255;28;996;-60
2024/01/13 10:52:50;;;;;;;;;;;;;;;3.87;42.45;95557.22;5087483;28;1293;-60
2024/01/13 10:55:16;;;;;;;;;;;;;;;4.18;42.16;95549.75;5075995;28;1191;-60
2024/01/13 10:57:43;;;;;;;;;;;;;;;4.75;43.15;95538.41;5076294;28;1034;-60
2024/01/13 11:00:10;;;;;;;;;;;;;;;4.91;41.04;95539.91;5076334;28;1038;-60
2024/01/13 11:02:37;;;;;;;;;;;;;;;4.73;39.81;95542.16;5076042;28;1059;-59
2024/01/13 11:05:04;;;;;;;;;;;;;;;4.78;39.90;95526.72;5076257;28;1992;-60
2024/01/13 11:07:30;;;;;;;;;;;;;;;5.23;40.52;95522.34;5076313;28;1231;-60
2024/01/13 11:09:58;;;;;;;;;;;;;;;5.02;39.45;95514.25;5075834;28;1041;-60
2024/01/13 11:12:39;;;;;;;;;;;;;;;4.00;39.77;95518.34;5075778;28;1032;-59
2024/01/13 11:15:11;;;;;;;;;;;;;;;3.26;42.23;95510.44;5075894;28;965;-59
2024/01/13 11:17:37;;;;;;;;;;;;;;;3.43;42.90;95495.16;5075998;28;1120;-59
2024/01/13 11:20:03;;;;;;;;;;;;;;;4.43;42.50;95494.00;5075544;28;1119;-59
2024/01/13 11:22:41;;;;;;;;;;;;;;;4.25;40.09;95496.22;5075818;28;993;-59
2024/01/13 11:25:22;;;;;;;;;;;;;;;3.84;40.31;95491.34;5075778;28;1985;-59
2024/01/13 11:27:59;;;;;;;;;;;;;;;3.51;42.91;95491.03;5075518;28;1028;-59
2024/01/13 11:30:46;;;;;;;;;;;;;;;3.68;43.18;95486.28;5075388;28;1041;-59
2024/01/13 11:33:13;;;;;;;;;;;;;;;3.98;42.33;95485.03;5075107;28;970;-59
2024/01/13 11:35:39;;;;;;;;;;;;;;;3.78;41.51;95475.94;5075409;28;1032;-59
2024/01/13 11:38:06;;;;;;;;;;;;;;;3.76;42.04;95475.19;5075425;28;1056;-59
2024/01/13 11:40:32;;;;;;;;;;;;;;;3.62;41.81;95470.88;5075517;28;1048;-59
2024/01/13 11:43:03;;;;;;;;;;;;;;;3.46;40.94;95469.34;5075194;28;1056;-59
2024/01/13 11:45:40;;;;;;;;;;;;;;;3.10;42.36;95465.72;5075330;28;1044;-59
2024/01/13 11:48:34;;;;;;;;;;;;;;;3.37;42.71;95456.78;5075212;28;1036;-59
2024/01/13 11:51:00;;;;;;;;;;;;;;;3.09;42.15;95463.19;5075106;28;1093;-60
2024/01/13 11:53:36;;;;;;;;;;;;;;;2.91;41.68;95455.59;5089105;28;1153;-59
2024/01/13 11:56:06;;;;;;;;;;;;;;;3.15;43.50;95449.56;5095607;28;1124;-59
2024/01/13 11:58:35;;;;;;;;;;;;;;;3.31;42.91;95444.00;5095228;28;1003;-59
2024/01/13 12:01:02;;;;;;;;;;;;;;;3.12;42.50;95442.66;5095466;28;974;-59
2024/01/13 12:03:28;;;;;;;;;;;;;;;2.82;43.96;95436.91;5095153;28;1979;-59
2024/01/13 12:05:54;;;;;;;;;;;;;;;2.82;42.56;95442.19;5095016;28;1003;-59
2024/01/13 12:08:21;;;;;;;;;;;;;;;2.86;43.90;95439.22;5095191;28;1052;-59
2024/01/13 12:10:51;;;;;;;;;;;;;;;2.95;42.77;95436.91;5094864;28;1037;-59
2024/01/13 12:13:18;;;;;;;;;;;;;;;2.58;44.47;95431.53;5094986;28;1044;-59
2024/01/13 12:15:45;;;;;;;;;;;;;;;2.84;44.29;95430.56;5094942;28;1076;-59
2024/01/13 12:18:20;;;;;;;;;;;;;;;3.22;44.52;95428.81;5094948;28;966;-59
2024/01/13 12:20:50;;;;;;;;;;;;;;;3.08;44.34;95419.22;5095011;28;977;-59
2024/01/13 12:23:17;;;;;;;;;;;;;;;3.07;44.10;95428.09;5094730;28;1996;-59
2024/01/13 12:25:43;;;;;;;;;;;;;;;2.80;43.48;95429.09;5095206;28;1044;-59
2024/01/13 12:28:09;;;;;;;;;;;;;;;3.05;44.56;95425.56;5094757;28;965;-60
2024/01/13 12:30:38;;;;;;;;;;;;;;;2.99;44.61;95427.81;5094409;28;1091;-59
2024/01/13 12:33:04;;;;;;;;;;;;;;;3.06;43.41;95429.06;5094748;28;981;-59
2024/01/13 12:35:30;;;;;;;;;;;;;;;2.98;42.97;95431.38;5094330;28;988;-59
2024/01/13 12:37:57;;;;;;;;;;;;;;;3.04;43.62;95428.34;5094612;28;981;-59
2024/01/13 12:40:23;;;;;;;;;;;;;;;2.71;43.36;95432.34;5094445;28;969;-59
2024/01/13 12:42:49;;;;;;;;;;;;;;;2.51;43.97;95423.19;5094346;28;1069;-59
2024/01/13 12:45:16;;;;;;;;;;;;;;;2.53;44.55;95424.75;5093196;28;1901;-59
2024/01/13 12:47:44;;;;;;;;;;;;;;;2.62;44.21;95428.59;5094519;28;1053;-60
2024/01/13 12:50:10;;;;;;;;;;;;;;;3.03;43.60;95431.91;5093190;28;977;-59
2024/01/13 12:52:40;;;;;;;;;;;;;;;3.16;43.92;95432.72;5086648;28;1133;-59
2024/01/13 12:55:06;;;;;;;;;;;;;;;3.25;43.97;95433.88;5073739;28;1126;-59
2024/01/13 12:57:32;;;;;;;;;;;;;;;3.09;43.10;95428.84;5073932;28;1059;-59
2024/01/13 12:59:58;;;;;;;;;;;;;;;3.06;43.38;95424.63;5073759;28;1027;-59
2024/01/13 13:02:24;;;;;;;;;;;;;;;2.86;43.97;95422.53;5073738;28;1024;-59
2024/01/13 13:04:50;;;;;;;;;;;;;;;2.78;43.38;95425.72;5073918;28;1911;-60
2024/01/13 13:07:16;;;;;;;;;;;;;;;2.71;44.49;95419.16;5073434;28;1040;-59
2024/01/13 13:09:43;;;;;;;;;;;;;;;2.54;44.62;95415.03;5073569;28;1036;-59
2024/01/13 13:12:08;;;;;;;;;;;;;;;2.61;43.61;95412.84;5073675;28;1049;-60
2024/01/13 13:14:34;;;;;;;;;;;;;;;2.73;44.43;95410.19;5073610;28;1045;-60
2024/01/13 13:17:00;;;;;;;;;;;;;;;2.87;44.51;95405.75;5073449;28;988;-60
2024/01/13 13:19:27;;;;;;;;;;;;;;;2.74;45.20;95397.84;5073575;28;1036;-59
2024/01/13 13:21:53;;;;;;;;;;;;;;;2.82;45.30;95400.78;5089182;28;974;-59
2024/01/13 13:24:19;;;;;;;;;;;;;;;2.74;44.88;95392.56;5073175;28;1996;-60
2024/01/13 13:26:45;;;;;;;;;;;;;;;2.61;44.92;95386.44;5073312;28;1075;-60
2024/01/13 13:29:11;;;;;;;;;;;;;;;2.49;44.90;95378.41;5073179;28;905;-59